Time;durP1;ratioP1;P1;durP2;ratioP2;P2;SDS_P1;SDS_P2;PMS_P1;PMS_P2;Temp;Humidity;BMP_temperature;BMP_pressure;BME280_temperature;BME280_humidity;BME280_pressure;Samples;Min_cycle;Max_cycle;Signal;HPM_P1;HPM_P2
2023/09/16 00:01:16;;;;;;;13.23;7.13;;;17.80;99.90;;;;;;5100237;28;20594;-72
2023/09/16 00:03:42;;;;;;;13.48;7.30;;;17.70;99.90;;;;;;5090558;28;20040;-70
2023/09/16 00:06:09;;;;;;;14.52;7.75;;;17.70;99.90;;;;;;5100549;28;20593;-71
2023/09/16 00:08:36;;;;;;;11.55;7.05;;;17.70;99.90;;;;;;5109505;28;20067;-73
2023/09/16 00:11:01;;;;;;;13.57;7.40;;;17.70;99.90;;;;;;5106910;28;20500;-71
2023/09/16 00:13:27;;;;;;;12.23;7.47;;;17.70;99.90;;;;;;5109704;28;20042;-72
2023/09/16 00:15:53;;;;;;;11.70;7.10;;;17.60;99.90;;;;;;5109053;28;20118;-72
2023/09/16 00:18:19;;;;;;;11.25;7.50;;;17.60;99.90;;;;;;5110515;28;20114;-73
2023/09/16 00:20:49;;;;;;;10.50;6.75;;;17.50;99.90;;;;;;5109520;28;20132;-71
2023/09/16 00:23:15;;;;;;;10.07;6.40;;;17.50;99.90;;;;;;5093549;28;20028;-73
2023/09/16 00:25:41;;;;;;;10.80;7.13;;;17.50;99.90;;;;;;5108588;28;20053;-70
2023/09/16 00:28:07;;;;;;;12.70;7.78;;;17.50;99.90;;;;;;5110600;28;20043;-71
2023/09/16 00:30:34;;;;;;;12.05;7.32;;;17.50;99.90;;;;;;5108909;28;20034;-71
2023/09/16 00:33:00;;;;;;;11.63;7.07;;;17.60;99.90;;;;;;5110580;28;20454;-71
2023/09/16 00:35:25;;;;;;;12.57;7.78;;;17.60;99.90;;;;;;5107935;28;20054;-71
2023/09/16 00:37:51;;;;;;;13.07;7.10;;;17.70;99.90;;;;;;5107844;28;20032;-70
2023/09/16 00:40:17;;;;;;;11.40;7.20;;;17.60;99.90;;;;;;5110591;28;20535;-72
2023/09/16 00:42:42;;;;;;;11.95;7.32;;;17.60;99.90;;;;;;5109671;28;20039;-72
2023/09/16 00:45:10;;;;;;;11.75;7.72;;;17.60;99.90;;;;;;5108658;28;20380;-72
2023/09/16 00:47:37;;;;;;;14.05;7.32;;;17.50;99.90;;;;;;5107677;28;20047;-72
2023/09/16 00:50:07;;;;;;;13.10;7.50;;;17.50;99.90;;;;;;5090944;28;20031;-72
2023/09/16 00:52:40;;;;;;;14.15;7.90;;;17.50;99.90;;;;;;5090692;28;20039;-71
2023/09/16 00:55:06;;;;;;;13.63;7.60;;;17.50;99.90;;;;;;5109402;28;20513;-72
2023/09/16 00:57:32;;;;;;;17.33;7.75;;;17.50;99.90;;;;;;5109056;28;20039;-71
2023/09/16 00:59:58;;;;;;;11.88;7.28;;;17.40;99.90;;;;;;5108833;28;20140;-71
2023/09/16 01:02:26;;;;;;;11.80;7.28;;;17.30;99.90;;;;;;5107422;28;20063;-71
2023/09/16 01:04:51;;;;;;;12.02;7.75;;;17.30;99.90;;;;;;5105787;28;20030;-70
2023/09/16 01:07:17;;;;;;;14.90;8.70;;;17.20;99.90;;;;;;5107038;28;20043;-70
2023/09/16 01:09:43;;;;;;;12.98;7.53;;;17.20;99.90;;;;;;5108626;28;20042;-72
2023/09/16 01:12:10;;;;;;;11.70;7.28;;;17.10;99.90;;;;;;5106084;28;20028;-72
2023/09/16 01:14:37;;;;;;;12.73;7.55;;;17.10;99.90;;;;;;5108600;28;20084;-71
2023/09/16 01:17:08;;;;;;;13.82;7.70;;;17.00;99.90;;;;;;5105813;28;20449;-71
2023/09/16 01:19:57;;;;;;;14.40;8.45;;;17.00;99.90;;;;;;5106413;28;20035;-70
2023/09/16 01:22:23;;;;;;;13.15;7.22;;;17.10;99.90;;;;;;5090854;28;20032;-70
2023/09/16 01:24:53;;;;;;;14.57;7.65;;;17.00;99.90;;;;;;5108364;28;20024;-71
2023/09/16 01:27:20;;;;;;;13.02;7.38;;;17.10;99.90;;;;;;5106130;28;20031;-71
2023/09/16 01:29:46;;;;;;;12.10;7.95;;;16.90;99.90;;;;;;5108095;28;20047;-71
2023/09/16 01:32:13;;;;;;;11.00;7.00;;;16.90;99.90;;;;;;5088457;28;20031;-71
2023/09/16 01:34:49;;;;;;;13.77;7.85;;;16.80;99.90;;;;;;5106598;28;20084;-71
2023/09/16 01:37:19;;;;;;;12.88;7.55;;;16.90;99.90;;;;;;5107246;28;20060;-71
2023/09/16 01:39:49;;;;;;;17.08;7.75;;;16.90;99.90;;;;;;5108726;28;20203;-71
2023/09/16 01:42:16;;;;;;;12.73;7.72;;;16.90;99.90;;;;;;5108084;28;20548;-71
2023/09/16 01:44:42;;;;;;;10.25;7.07;;;16.80;99.90;;;;;;5106735;28;20046;-71
2023/09/16 01:47:07;;;;;;;11.20;7.07;;;16.80;99.90;;;;;;5105086;28;20039;-71
2023/09/16 01:49:33;;;;;;;16.58;7.20;;;16.80;99.90;;;;;;5107392;28;20041;-71
2023/09/16 01:51:59;;;;;;;11.27;7.20;;;16.80;99.90;;;;;;5108261;28;20353;-72
2023/09/16 01:54:25;;;;;;;11.48;6.85;;;16.70;99.90;;;;;;5108773;28;20475;-71
2023/09/16 01:56:51;;;;;;;10.95;6.88;;;16.70;99.90;;;;;;5107301;28;20468;-70
2023/09/16 01:59:16;;;;;;;11.60;6.82;;;16.60;99.90;;;;;;5107641;28;20032;-72
2023/09/16 02:01:43;;;;;;;10.65;6.90;;;16.60;99.90;;;;;;5083013;28;20181;-71
2023/09/16 02:04:09;;;;;;;10.73;7.03;;;16.60;99.90;;;;;;5101236;28;20099;-70
2023/09/16 02:06:35;;;;;;;13.75;8.50;;;16.50;99.90;;;;;;5106200;28;20118;-72
2023/09/16 02:09:00;;;;;;;11.68;7.22;;;16.50;99.90;;;;;;5107354;28;20035;-72
2023/09/16 02:11:26;;;;;;;12.10;7.82;;;16.50;99.90;;;;;;5107810;28;20020;-70
2023/09/16 02:13:52;;;;;;;14.00;8.15;;;16.40;99.90;;;;;;5107564;28;20289;-71
2023/09/16 02:16:17;;;;;;;12.85;7.60;;;16.40;99.90;;;;;;5105901;28;20024;-72
2023/09/16 02:18:43;;;;;;;13.27;8.07;;;16.40;99.90;;;;;;5107038;28;20566;-71
2023/09/16 02:21:09;;;;;;;13.93;7.55;;;16.30;99.90;;;;;;5107502;28;20558;-72
2023/09/16 02:23:34;;;;;;;12.32;7.07;;;16.20;99.90;;;;;;5108275;28;20102;-71
2023/09/16 02:26:01;;;;;;;13.60;8.60;;;16.20;99.90;;;;;;5106259;28;20061;-72
2023/09/16 02:28:27;;;;;;;15.43;8.02;;;16.20;99.90;;;;;;5108064;28;20118;-71
2023/09/16 02:30:52;;;;;;;13.95;7.50;;;16.20;99.90;;;;;;5106007;28;20124;-72
2023/09/16 02:33:18;;;;;;;11.10;7.35;;;16.10;99.90;;;;;;5108879;28;20145;-72
2023/09/16 02:35:44;;;;;;;13.55;8.23;;;15.90;99.90;;;;;;5111198;28;20031;-71
2023/09/16 02:38:09;;;;;;;12.52;7.53;;;16.00;99.90;;;;;;5109960;28;20036;-72
2023/09/16 02:40:40;;;;;;;13.32;7.55;;;16.00;99.90;;;;;;5109746;28;20138;-73
2023/09/16 02:43:05;;;;;;;11.43;6.28;;;16.00;99.90;;;;;;5092298;28;20571;-72
2023/09/16 02:45:31;;;;;;;12.45;6.63;;;16.00;99.90;;;;;;5110840;28;20028;-71
2023/09/16 02:47:56;;;;;;;13.38;7.53;;;15.90;99.90;;;;;;5112333;28;20597;-71
2023/09/16 02:50:22;;;;;;;13.30;7.82;;;15.80;99.90;;;;;;5108502;28;20043;-72
2023/09/16 02:52:48;;;;;;;12.75;7.10;;;15.80;99.90;;;;;;5106506;28;20047;-72
2023/09/16 02:55:16;;;;;;;13.90;7.93;;;15.70;99.90;;;;;;5108701;28;20027;-72
2023/09/16 02:57:41;;;;;;;10.82;6.97;;;15.60;99.90;;;;;;5110746;28;20108;-72
2023/09/16 03:00:07;;;;;;;13.88;7.95;;;15.50;99.90;;;;;;5109980;28;20488;-72
2023/09/16 03:02:33;;;;;;;11.90;7.45;;;15.50;99.90;;;;;;5108989;28;20040;-72
2023/09/16 03:04:59;;;;;;;13.43;7.30;;;15.40;99.90;;;;;;5110965;28;20054;-71
2023/09/16 03:07:24;;;;;;;13.60;7.43;;;15.10;99.90;;;;;;5107599;28;20039;-72
2023/09/16 03:09:50;;;;;;;11.43;7.40;;;14.90;99.90;;;;;;5111537;28;20827;-71
2023/09/16 03:12:15;;;;;;;12.82;7.63;;;14.80;99.90;;;;;;5112295;28;20032;-72
2023/09/16 03:14:41;;;;;;;14.50;8.25;;;14.70;99.90;;;;;;5108169;28;20049;-72
2023/09/16 03:17:06;;;;;;;15.13;8.07;;;14.70;99.90;;;;;;5109370;28;20038;-71
2023/09/16 03:19:32;;;;;;;12.60;7.57;;;14.60;99.90;;;;;;5108157;28;20032;-72
2023/09/16 03:21:58;;;;;;;12.93;7.75;;;14.50;99.90;;;;;;5109923;28;20050;-71
2023/09/16 03:24:23;;;;;;;11.98;7.53;;;14.50;99.90;;;;;;5111142;28;20467;-72
2023/09/16 03:26:49;;;;;;;12.50;7.47;;;14.50;99.90;;;;;;5109813;28;20038;-71
2023/09/16 03:29:15;;;;;;;12.70;7.85;;;14.50;99.90;;;;;;5092088;28;20040;-71
2023/09/16 03:31:40;;;;;;;15.25;7.70;;;14.50;99.90;;;;;;5109192;28;20107;-72
2023/09/16 03:34:06;;;;;;;13.50;7.40;;;14.50;99.90;;;;;;5109873;28;20054;-71
2023/09/16 03:36:31;;;;;;;14.38;7.53;;;14.50;99.90;;;;;;5110225;28;20039;-72
2023/09/16 03:38:57;;;;;;;17.58;7.65;;;14.50;99.90;;;;;;5111452;28;20115;-71
2023/09/16 03:41:23;;;;;;;15.30;7.90;;;14.50;99.90;;;;;;5108869;28;20071;-71
2023/09/16 03:43:49;;;;;;;15.52;7.45;;;14.50;99.90;;;;;;5094101;28;20636;-71
2023/09/16 03:46:14;;;;;;;14.07;7.57;;;14.30;99.90;;;;;;5108820;28;20032;-71
2023/09/16 03:48:40;;;;;;;11.88;6.85;;;14.10;99.90;;;;;;5108214;28;20447;-72
2023/09/16 03:51:07;;;;;;;16.13;7.65;;;14.10;99.90;;;;;;5090603;28;20074;-71
2023/09/16 03:53:34;;;;;;;13.10;6.93;;;14.00;99.90;;;;;;5109693;28;20131;-72
2023/09/16 03:55:59;;;;;;;12.07;7.32;;;14.10;99.90;;;;;;5110655;28;20038;-71
2023/09/16 03:58:25;;;;;;;14.70;7.50;;;14.10;99.90;;;;;;5105789;28;20027;-72
2023/09/16 04:00:50;;;;;;;12.52;7.05;;;14.10;99.90;;;;;;5108192;28;20043;-71
2023/09/16 04:03:16;;;;;;;13.40;7.22;;;14.20;99.90;;;;;;5110038;28;20357;-72
2023/09/16 04:05:42;;;;;;;11.55;6.60;;;14.20;99.90;;;;;;5108389;28;20032;-71
2023/09/16 04:08:08;;;;;;;13.40;7.55;;;14.20;99.90;;;;;;5108635;28;20057;-71
2023/09/16 04:10:34;;;;;;;11.57;6.70;;;14.20;99.90;;;;;;5108498;28;20430;-72
2023/09/16 04:12:59;;;;;;;13.68;7.13;;;14.30;99.90;;;;;;5110089;28;20098;-70
2023/09/16 04:15:25;;;;;;;14.27;7.13;;;14.30;99.90;;;;;;5111021;28;20019;-72
2023/09/16 04:17:51;;;;;;;13.05;7.30;;;14.30;99.90;;;;;;5108489;28;20028;-70
2023/09/16 04:20:19;;;;;;;10.73;6.97;;;14.20;99.90;;;;;;5110915;28;20028;-72
2023/09/16 04:22:45;;;;;;;12.48;7.60;;;14.20;99.90;;;;;;5108759;28;20073;-72
2023/09/16 04:25:11;;;;;;;15.00;7.40;;;14.30;99.90;;;;;;5107693;28;20031;-71
2023/09/16 04:27:36;;;;;;;15.05;7.55;;;14.30;99.90;;;;;;5108373;28;20126;-71
2023/09/16 04:30:03;;;;;;;12.95;7.13;;;14.30;99.90;;;;;;5110762;28;20059;-71
2023/09/16 04:32:29;;;;;;;13.85;7.88;;;14.30;99.90;;;;;;5109671;28;20035;-73
2023/09/16 04:34:57;;;;;;;11.95;7.50;;;14.20;99.90;;;;;;5108147;28;20080;-70
2023/09/16 04:37:23;;;;;;;15.15;7.90;;;14.10;99.90;;;;;;5104308;28;20077;-70
2023/09/16 04:39:48;;;;;;;12.02;7.50;;;14.10;99.90;;;;;;5101325;28;20027;-71
2023/09/16 04:42:14;;;;;;;16.20;7.80;;;14.10;99.90;;;;;;5105695;28;20472;-71
2023/09/16 04:44:40;;;;;;;13.75;7.78;;;14.10;99.90;;;;;;5104792;28;20024;-71
2023/09/16 04:47:10;;;;;;;19.08;8.20;;;14.10;99.90;;;;;;5097770;28;20035;-71
2023/09/16 04:49:36;;;;;;;15.35;7.57;;;14.00;99.90;;;;;;5102292;28;20043;-71
2023/09/16 04:52:04;;;;;;;16.27;7.95;;;14.00;99.90;;;;;;5107303;28;20110;-71
2023/09/16 04:54:32;;;;;;;15.77;8.55;;;14.00;99.90;;;;;;5105906;28;20033;-71
2023/09/16 04:56:58;;;;;;;14.50;8.32;;;13.90;99.90;;;;;;5107973;28;20031;-71
2023/09/16 04:59:24;;;;;;;14.55;7.75;;;13.90;99.90;;;;;;5114111;27;20042;-71
2023/09/16 05:01:51;;;;;;;12.48;7.47;;;13.80;99.90;;;;;;5110255;27;20031;-70
2023/09/16 05:04:17;;;;;;;19.23;7.97;;;13.80;99.90;;;;;;5109115;28;20054;-71
2023/09/16 05:06:42;;;;;;;15.38;7.90;;;13.80;99.90;;;;;;5104983;28;20055;-70
2023/09/16 05:09:08;;;;;;;15.80;8.10;;;13.80;99.90;;;;;;5107706;28;20119;-72
2023/09/16 05:11:34;;;;;;;12.55;7.70;;;13.80;99.90;;;;;;5106156;28;20719;-71
2023/09/16 05:13:59;;;;;;;17.02;8.23;;;13.80;99.90;;;;;;5107562;28;20028;-71
2023/09/16 05:16:25;;;;;;;15.13;7.65;;;13.80;99.90;;;;;;5108960;28;20395;-71
2023/09/16 05:18:50;;;;;;;12.45;7.80;;;13.80;99.90;;;;;;5107624;28;20399;-71
2023/09/16 05:21:16;;;;;;;16.35;9.07;;;13.90;99.90;;;;;;5106966;28;20149;-71
2023/09/16 05:23:42;;;;;;;15.70;7.80;;;13.90;99.90;;;;;;5106175;28;20424;-71
2023/09/16 05:26:09;;;;;;;16.13;8.60;;;13.80;99.90;;;;;;5109702;28;20024;-70
2023/09/16 05:28:34;;;;;;;14.68;8.27;;;13.80;99.90;;;;;;5108434;28;20024;-70
2023/09/16 05:31:01;;;;;;;15.30;7.80;;;13.90;99.90;;;;;;5106819;28;20503;-71
2023/09/16 05:33:26;;;;;;;17.00;8.73;;;13.90;99.90;;;;;;5107396;27;20085;-70
2023/09/16 05:35:52;;;;;;;15.93;8.43;;;13.90;99.90;;;;;;5105732;28;20077;-70
2023/09/16 05:38:17;;;;;;;17.83;8.20;;;13.70;99.90;;;;;;5089435;28;20079;-71
2023/09/16 05:40:43;;;;;;;18.38;8.48;;;13.70;99.90;;;;;;5104930;28;20482;-71
2023/09/16 05:43:09;;;;;;;21.23;8.63;;;13.70;99.90;;;;;;5106358;28;20110;-72
2023/09/16 05:45:36;;;;;;;16.77;8.68;;;13.80;99.90;;;;;;5106140;28;20028;-72
2023/09/16 05:48:03;;;;;;;17.70;10.88;;;13.90;99.90;;;;;;5105195;28;20036;-72
2023/09/16 05:50:29;;;;;;;19.35;9.70;;;14.20;99.90;;;;;;5101480;28;20388;-71
2023/09/16 05:52:55;;;;;;;17.23;10.02;;;14.40;99.90;;;;;;5108091;28;20103;-71
2023/09/16 05:55:21;;;;;;;16.60;9.77;;;14.60;99.90;;;;;;5107322;28;20111;-71
2023/09/16 05:57:46;;;;;;;16.42;9.80;;;14.70;99.90;;;;;;5096782;28;20036;-72
2023/09/16 06:00:12;;;;;;;17.60;9.98;;;14.80;99.90;;;;;;5104092;28;20027;-71
2023/09/16 06:02:39;;;;;;;21.50;11.35;;;14.90;99.90;;;;;;5090617;28;20043;-71
2023/09/16 06:05:06;;;;;;;19.13;10.30;;;15.00;99.90;;;;;;5105003;28;20032;-72
2023/09/16 06:07:32;;;;;;;20.92;10.77;;;15.20;99.90;;;;;;5108406;28;20035;-72
2023/09/16 06:09:57;;;;;;;20.23;10.57;;;15.40;99.90;;;;;;5107997;28;20044;-72
2023/09/16 06:12:23;;;;;;;23.92;11.40;;;15.50;99.90;;;;;;5108070;28;20067;-71
2023/09/16 06:14:49;;;;;;;24.42;12.07;;;15.60;99.90;;;;;;5107228;28;20027;-72
2023/09/16 06:17:14;;;;;;;23.25;11.35;;;15.70;99.90;;;;;;5108887;28;20031;-72
2023/09/16 06:19:40;;;;;;;23.42;11.55;;;15.90;99.90;;;;;;5105059;28;20035;-72
2023/09/16 06:22:09;;;;;;;19.00;10.52;;;16.00;99.90;;;;;;5107224;28;20043;-71
2023/09/16 06:24:35;;;;;;;16.95;9.80;;;16.10;99.90;;;;;;5104921;28;20498;-72
2023/09/16 06:27:01;;;;;;;19.25;10.68;;;16.20;99.90;;;;;;5107914;28;20035;-72
2023/09/16 06:29:26;;;;;;;19.70;11.13;;;16.40;99.90;;;;;;5106633;28;20032;-71
2023/09/16 06:31:52;;;;;;;17.88;10.63;;;16.50;99.90;;;;;;5106967;28;20046;-72
2023/09/16 06:34:18;;;;;;;19.23;10.88;;;16.60;99.90;;;;;;5106524;28;20042;-72
2023/09/16 06:36:43;;;;;;;20.50;11.43;;;16.70;99.90;;;;;;5088983;28;20023;-72
2023/09/16 06:39:11;;;;;;;20.38;11.32;;;16.70;99.90;;;;;;5108660;28;20114;-71
2023/09/16 06:41:37;;;;;;;19.35;11.07;;;16.80;99.90;;;;;;5108094;28;20024;-71
2023/09/16 06:44:02;;;;;;;17.58;10.82;;;16.90;99.90;;;;;;5107995;28;20067;-72
2023/09/16 06:46:28;;;;;;;18.17;10.85;;;17.00;99.90;;;;;;5107523;28;20584;-71
2023/09/16 06:48:54;;;;;;;18.63;10.30;;;17.10;99.90;;;;;;5107792;28;20495;-71
2023/09/16 06:51:19;;;;;;;19.20;10.13;;;17.10;99.90;;;;;;5108672;28;20028;-71
2023/09/16 06:53:45;;;;;;;18.13;11.15;;;17.20;99.90;;;;;;5107948;28;20106;-72
2023/09/16 06:56:10;;;;;;;17.63;10.70;;;17.40;99.90;;;;;;5103893;28;20034;-72
2023/09/16 06:58:36;;;;;;;22.70;10.68;;;17.40;99.90;;;;;;5085454;28;20031;-72
2023/09/16 07:01:12;;;;;;;22.95;11.40;;;17.50;99.90;;;;;;5098126;28;20023;-69
2023/09/16 07:03:38;;;;;;;19.08;10.82;;;17.60;99.90;;;;;;5105086;28;20038;-70
2023/09/16 07:06:04;;;;;;;17.70;10.63;;;17.70;99.90;;;;;;5105670;28;20027;-70
2023/09/16 07:08:29;;;;;;;18.67;11.32;;;17.80;99.90;;;;;;5098781;28;20036;-70
2023/09/16 07:10:55;;;;;;;17.95;10.88;;;17.90;99.90;;;;;;5083835;28;20119;-69
2023/09/16 07:13:21;;;;;;;22.52;11.95;;;18.00;99.90;;;;;;5102831;28;20032;-71
2023/09/16 07:15:54;;;;;;;18.50;10.65;;;18.00;99.90;;;;;;5100943;28;20036;-71
2023/09/16 07:18:19;;;;;;;16.38;9.65;;;18.20;99.90;;;;;;5096877;28;20089;-71
2023/09/16 07:20:45;;;;;;;17.50;10.20;;;18.30;99.90;;;;;;5107268;28;20027;-72
2023/09/16 07:23:11;;;;;;;18.50;10.35;;;18.50;99.90;;;;;;5092812;28;20035;-71
2023/09/16 07:25:36;;;;;;;18.20;10.48;;;18.60;99.90;;;;;;5111952;28;20108;-71
2023/09/16 07:28:04;;;;;;;18.80;10.80;;;18.70;99.90;;;;;;5090437;28;20687;-71
2023/09/16 07:30:30;;;;;;;16.70;9.93;;;18.80;99.90;;;;;;5111839;28;20031;-71
2023/09/16 07:32:56;;;;;;;17.08;9.65;;;18.90;99.90;;;;;;5109920;28;20077;-71
2023/09/16 07:35:22;;;;;;;19.38;10.65;;;19.00;99.90;;;;;;5111723;28;20028;-71
2023/09/16 07:37:48;;;;;;;18.50;10.18;;;19.10;99.90;;;;;;5110957;28;20425;-71
2023/09/16 07:40:13;;;;;;;15.77;10.35;;;19.30;99.90;;;;;;5110660;28;20048;-72
2023/09/16 07:42:39;;;;;;;14.50;9.43;;;19.30;99.90;;;;;;5110412;28;20527;-72
2023/09/16 07:45:05;;;;;;;17.52;9.38;;;19.40;99.90;;;;;;5100443;28;20020;-72
2023/09/16 07:47:32;;;;;;;15.25;9.90;;;19.50;99.90;;;;;;5106475;28;20050;-72
2023/09/16 07:49:58;;;;;;;20.83;10.65;;;19.70;99.90;;;;;;5080611;28;21852;-72
2023/09/16 07:52:24;;;;;;;18.65;10.13;;;19.80;99.90;;;;;;5110436;28;20037;-72
2023/09/16 07:54:49;;;;;;;18.02;9.75;;;19.90;99.90;;;;;;5102340;28;20069;-72
2023/09/16 07:57:15;;;;;;;24.63;10.50;;;19.90;99.90;;;;;;5108336;28;20031;-72
2023/09/16 07:59:40;;;;;;;17.88;9.93;;;20.10;99.90;;;;;;5101774;28;20430;-71
2023/09/16 08:02:06;;;;;;;17.63;9.63;;;20.20;99.90;;;;;;5100727;28;20028;-72
2023/09/16 08:04:32;;;;;;;14.68;9.20;;;20.40;99.90;;;;;;5109897;28;20062;-72
2023/09/16 08:06:58;;;;;;;16.20;9.50;;;20.40;99.90;;;;;;5108460;28;20043;-72
2023/09/16 08:09:24;;;;;;;15.02;8.65;;;20.40;99.90;;;;;;5110922;28;20036;-72
2023/09/16 08:11:50;;;;;;;15.70;9.48;;;20.50;99.90;;;;;;5100735;28;20032;-72
2023/09/16 08:14:15;;;;;;;13.15;8.60;;;20.60;99.90;;;;;;5110014;28;20050;-72
2023/09/16 08:16:42;;;;;;;13.73;7.97;;;20.80;99.90;;;;;;5104331;28;20024;-72
2023/09/16 08:19:08;;;;;;;12.55;8.20;;;20.90;99.90;;;;;;5107688;28;20035;-72
2023/09/16 08:21:33;;;;;;;13.27;8.48;;;21.10;99.90;;;;;;5109640;28;20047;-72
2023/09/16 08:23:59;;;;;;;13.82;8.05;;;21.20;99.90;;;;;;5110117;27;20019;-72
2023/09/16 08:26:24;;;;;;;15.73;8.05;;;21.40;99.90;;;;;;5108877;28;20031;-71
2023/09/16 08:28:50;;;;;;;13.88;8.38;;;21.50;99.90;;;;;;5108601;28;20038;-71
2023/09/16 08:31:15;;;;;;;14.68;8.95;;;21.60;99.90;;;;;;5108307;28;20491;-71
2023/09/16 08:33:41;;;;;;;14.25;8.65;;;21.70;99.90;;;;;;5108333;28;20384;-71
2023/09/16 08:36:07;;;;;;;14.63;8.50;;;21.70;99.90;;;;;;5105294;28;20027;-72
2023/09/16 08:38:32;;;;;;;21.13;10.00;;;21.80;99.90;;;;;;5108503;28;20172;-73
2023/09/16 08:41:12;;;;;;;12.18;8.50;;;21.80;99.90;;;;;;5108988;27;20035;-72
2023/09/16 08:43:40;;;;;;;14.77;9.30;;;21.80;99.90;;;;;;5105444;28;20045;-72
2023/09/16 08:46:10;;;;;;;15.15;9.35;;;21.80;99.90;;;;;;5099029;28;20522;-72
2023/09/16 08:48:41;;;;;;;12.73;8.02;;;21.90;99.90;;;;;;5104489;28;20062;-73
2023/09/16 08:51:08;;;;;;;;;;;22.00;99.90;;;;;;5109741;28;20077;-71
2023/09/16 08:53:36;;;;;;;15.80;8.70;;;22.10;99.90;;;;;;5108822;28;19915;-71
2023/09/16 08:56:03;;;;;;;15.80;8.23;;;22.10;99.90;;;;;;5109489;28;20034;-72
2023/09/16 08:58:35;;;;;;;16.27;7.38;;;22.10;99.90;;;;;;5110722;28;20149;-72
2023/09/16 09:01:02;;;;;;;14.38;7.97;;;22.20;99.90;;;;;;5109233;28;20043;-71
2023/09/16 09:03:32;;;;;;;12.20;7.88;;;22.40;99.90;;;;;;5109926;28;20025;-74
2023/09/16 09:05:58;;;;;;;12.38;8.18;;;22.60;99.90;;;;;;5102357;28;20172;-72
2023/09/16 09:08:24;;;;;;;13.07;8.77;;;22.50;99.90;;;;;;5079641;28;20115;-73
2023/09/16 09:10:50;;;;;;;13.35;8.32;;;22.50;99.90;;;;;;5108252;28;20034;-73
2023/09/16 09:13:17;;;;;;;12.63;7.72;;;22.60;99.90;;;;;;5108675;28;20491;-73
2023/09/16 09:15:47;;;;;;;9.23;6.72;;;22.70;99.90;;;;;;5108465;28;20028;-73
2023/09/16 09:18:18;;;;;;;13.02;6.57;;;22.80;99.90;;;;;;5076210;28;20048;-72
2023/09/16 09:20:44;;;;;;;10.77;6.78;;;23.00;99.90;;;;;;5091753;28;20050;-72
2023/09/16 09:23:10;;;;;;;11.15;7.05;;;23.10;99.90;;;;;;5096958;28;20483;-71
2023/09/16 09:25:36;;;;;;;13.60;7.40;;;23.20;99.90;;;;;;5108422;28;20033;-72
2023/09/16 09:28:03;;;;;;;12.10;7.72;;;23.30;99.90;;;;;;5105102;28;20032;-73
2023/09/16 09:30:31;;;;;;;14.50;7.53;;;23.50;99.90;;;;;;5101555;28;20042;-73
2023/09/16 09:32:58;;;;;;;16.48;8.38;;;23.60;99.90;;;;;;5104096;28;20036;-71
2023/09/16 09:35:29;;;;;;;13.43;6.90;;;23.50;99.90;;;;;;5105261;28;20097;-72
2023/09/16 09:37:54;;;;;;;;;;;23.60;99.90;;;;;;5089668;28;20549;-70
2023/09/16 09:40:21;;;;;;;9.73;6.60;;;23.70;99.90;;;;;;5103358;28;20351;-71
2023/09/16 09:42:52;;;;;;;13.85;7.13;;;23.80;99.90;;;;;;5107576;28;20035;-71
2023/09/16 09:45:19;;;;;;;11.48;6.80;;;23.90;99.90;;;;;;5107276;28;20027;-71
2023/09/16 09:47:46;;;;;;;8.93;5.93;;;24.10;99.90;;;;;;5107324;28;20157;-71
2023/09/16 09:50:14;;;;;;;9.05;5.97;;;24.30;99.90;;;;;;5106916;28;20104;-71
2023/09/16 09:52:45;;;;;;;11.32;6.60;;;24.30;99.90;;;;;;5107280;28;20472;-70
2023/09/16 09:55:11;;;;;;;9.02;6.30;;;24.20;99.90;;;;;;5098855;28;20031;-70
2023/09/16 09:57:37;;;;;;;7.63;5.65;;;24.10;99.90;;;;;;5108508;28;20038;-71
2023/09/16 10:00:05;;;;;;;9.77;6.35;;;24.10;99.90;;;;;;5106203;28;20039;-70
2023/09/16 10:02:31;;;;;;;9.93;6.20;;;24.20;99.90;;;;;;5108003;28;20428;-70
2023/09/16 10:05:05;;;;;;;7.97;5.70;;;24.30;99.90;;;;;;5104385;28;20119;-70
2023/09/16 10:07:31;;;;;;;8.43;5.65;;;24.40;99.90;;;;;;5107875;28;20031;-71
2023/09/16 10:09:57;;;;;;;7.63;5.25;;;24.50;99.90;;;;;;5107409;28;20544;-70
2023/09/16 10:12:23;;;;;;;11.85;6.10;;;24.70;99.90;;;;;;5108317;28;20039;-70
2023/09/16 10:14:51;;;;;;;8.68;5.65;;;24.80;99.90;;;;;;5106427;28;20016;-71
2023/09/16 10:17:17;;;;;;;7.70;5.63;;;24.80;99.90;;;;;;5106756;28;20028;-72
2023/09/16 10:19:44;;;;;;;8.18;5.38;;;24.90;99.90;;;;;;5107090;28;20031;-71
2023/09/16 10:22:11;;;;;;;6.45;4.90;;;25.00;99.90;;;;;;5106984;28;20055;-71
2023/09/16 10:24:40;;;;;;;6.22;4.80;;;25.00;99.90;;;;;;5107413;28;20569;-71
2023/09/16 10:27:23;;;;;;;8.70;5.05;;;25.00;99.90;;;;;;5104309;28;20124;-71
2023/09/16 10:29:49;;;;;;;7.40;5.60;;;25.00;99.90;;;;;;5106718;28;20040;-70
2023/09/16 10:32:18;;;;;;;10.23;5.38;;;25.20;99.90;;;;;;5106790;28;20044;-71
2023/09/16 10:34:48;;;;;;;9.65;5.90;;;25.40;99.90;;;;;;5107176;28;20042;-71
2023/09/16 10:37:17;;;;;;;7.57;5.97;;;25.50;99.90;;;;;;5105331;28;20033;-71
2023/09/16 10:39:45;;;;;;;8.45;5.65;;;25.60;99.90;;;;;;5107590;28;20032;-71
2023/09/16 10:42:12;;;;;;;8.85;5.50;;;25.70;99.90;;;;;;5106923;28;20071;-70
2023/09/16 10:44:39;;;;;;;9.35;5.95;;;25.80;99.90;;;;;;5104633;28;20108;-71
2023/09/16 10:47:06;;;;;;;8.02;5.68;;;25.70;99.90;;;;;;5102300;28;20306;-69
2023/09/16 10:49:32;;;;;;;9.85;5.60;;;25.70;99.90;;;;;;5107082;28;20031;-71
2023/09/16 10:52:04;;;;;;;7.72;5.63;;;25.80;99.90;;;;;;5105880;28;20032;-70
2023/09/16 10:54:41;;;;;;;7.70;5.93;;;25.90;99.90;;;;;;5104285;28;20027;-70
2023/09/16 10:57:15;;;;;;;9.25;5.32;;;26.00;99.90;;;;;;5111511;28;20035;-71
2023/09/16 10:59:44;;;;;;;8.45;5.38;;;26.10;99.90;;;;;;5110892;28;20123;-70
2023/09/16 11:02:38;;;;;;;8.35;5.75;;;26.10;99.90;;;;;;5110832;28;20016;-70
2023/09/16 11:05:04;;;;;;;8.40;5.55;;;26.10;99.90;;;;;;5109229;28;20039;-70
2023/09/16 11:07:31;;;;;;;7.85;5.80;;;26.20;99.90;;;;;;5111454;28;20036;-70
2023/09/16 11:09:58;;;;;;;5.95;5.00;;;26.30;99.90;;;;;;5111015;28;20039;-70
2023/09/16 11:12:25;;;;;;;9.38;5.13;;;26.50;99.90;;;;;;5109856;28;20035;-70
2023/09/16 11:14:51;;;;;;;6.63;5.00;;;26.70;99.90;;;;;;5111916;28;20135;-70
2023/09/16 11:17:17;;;;;;;6.40;4.90;;;26.60;99.90;;;;;;5110630;28;20102;-70
2023/09/16 11:19:42;;;;;;;6.95;5.28;;;26.60;99.90;;;;;;5108737;28;20168;-70
2023/09/16 11:22:12;;;;;;;6.43;4.90;;;26.60;99.90;;;;;;5105184;28;20527;-70
2023/09/16 11:24:38;;;;;;;9.93;4.53;;;26.70;99.90;;;;;;5108923;28;20024;-71
2023/09/16 11:27:04;;;;;;;7.53;5.60;;;27.00;99.90;;;;;;5096424;28;20040;-70
2023/09/16 11:29:31;;;;;;;6.80;5.10;;;27.20;99.90;;;;;;5108387;28;20034;-70
2023/09/16 11:31:57;;;;;;;6.82;4.78;;;27.50;99.90;;;;;;5105276;28;20043;-70
2023/09/16 11:34:28;;;;;;;10.02;5.53;;;27.60;99.90;;;;;;5108686;28;20028;-70
2023/09/16 11:36:54;;;;;;;7.90;5.65;;;27.50;99.90;;;;;;5107039;28;20038;-70
2023/09/16 11:39:34;;;;;;;7.28;5.28;;;27.30;99.90;;;;;;5107600;28;20031;-70
2023/09/16 11:42:00;;;;;;;8.55;5.90;;;27.30;99.90;;;;;;5101573;28;20020;-70
2023/09/16 11:44:28;;;;;;;7.18;5.57;;;27.50;99.90;;;;;;5107596;28;20035;-70
2023/09/16 11:46:54;;;;;;;7.30;5.40;;;27.80;99.90;;;;;;5110342;28;20418;-71
2023/09/16 11:49:20;;;;;;;8.52;5.40;;;28.00;99.90;;;;;;5109962;28;20652;-70
2023/09/16 11:51:51;;;;;;;7.25;4.57;;;28.20;99.90;;;;;;5108240;28;20491;-70
2023/09/16 11:54:17;;;;;;;;;;;28.50;99.90;;;;;;5102308;28;20369;-70
2023/09/16 11:56:42;;;;;;;8.27;5.38;;;28.00;99.90;;;;;;5103813;28;19911;-70
2023/09/16 11:59:08;;;;;;;7.55;5.45;;;27.90;99.90;;;;;;5108120;28;20383;-70
2023/09/16 12:01:40;;;;;;;7.40;5.53;;;27.70;99.90;;;;;;5099740;28;20031;-70
2023/09/16 12:04:09;;;;;;;6.75;5.25;;;27.80;99.90;;;;;;5106728;28;20035;-71
2023/09/16 12:06:35;;;;;;;6.30;4.95;;;27.80;99.90;;;;;;5101041;28;20024;-70
2023/09/16 12:09:05;;;;;;;8.18;5.40;;;28.00;99.90;;;;;;5095555;28;20464;-71
2023/09/16 12:11:32;;;;;;;;;;;28.40;99.90;;;;;;5100771;28;20356;-70
2023/09/16 12:13:58;;;;;;;4.95;3.92;;;28.60;99.90;;;;;;5106185;28;21593;-72
2023/09/16 12:16:25;;;;;;;7.68;4.75;;;28.70;98.50;;;;;;5107903;28;20032;-71
2023/09/16 12:18:50;;;;;;;8.52;4.65;;;28.50;98.50;;;;;;5104644;28;20031;-71
2023/09/16 12:21:16;;;;;;;6.15;4.43;;;28.50;99.70;;;;;;5101498;28;20032;-71
2023/09/16 12:23:43;;;;;;;6.78;5.03;;;28.70;98.40;;;;;;5102639;28;20028;-70
2023/09/16 12:26:12;;;;;;;6.75;5.00;;;28.60;97.90;;;;;;5108752;28;20044;-70
2023/09/16 12:28:39;;;;;;;5.72;4.63;;;28.60;97.80;;;;;;5103082;28;20044;-71
2023/09/16 12:31:10;;;;;;;6.13;4.28;;;28.50;98.40;;;;;;5101332;28;20034;-71
2023/09/16 12:33:44;;;;;;;10.35;4.78;;;28.70;96.80;;;;;;5095091;28;20040;-71
2023/09/16 12:36:15;;;;;;;6.88;4.50;;;28.90;97.40;;;;;;5105718;28;20471;-71